Weather at Rains Airfield

Public forecast

Using degrees Celsius for public forecast. Weather courtesy of forecast.io.

Closest aviation weather report (METAR) to Rains Airfield

Closest report is Grazzanise Air Base, 12.7 nm (23.5 km) WSW.

2024/07/25 18:55 (retrieved 51 minutes ago)

LIRM 251855Z 18004KT 9999 SCT080 27/25 Q1008 RMK SCT VIS MIN 9999 WIND THR06 25006KT BLU

Closest aviation forecast (TAF) to Rains Airfield

Closest forecast is Naples International Airport, 15.8 nm (29.2 km) S.

2024/07/25 18:25 (retrieved 1 hour ago)

TAF LIRN 251700Z 2518/2618 26012KT 9999 SCT030 BECMG 2519/2521 05007KT BECMG 2609/2611 26010KT